sensor_id;sensor_type;location;lat;lon;timestamp;pressure;altitude;pressure_sealevel;temperature;humidity
78890;BME280;68279;48.964;14.502;2023-05-07T00:01:33;97150.69;;;7.24;100.00
78890;BME280;68279;48.964;14.502;2023-05-07T00:03:59;97145.44;;;7.29;100.00
78890;BME280;68279;48.964;14.502;2023-05-07T00:06:25;97153.34;;;7.61;100.00
78890;BME280;68279;48.964;14.502;2023-05-07T00:08:51;97159.00;;;7.75;100.00
78890;BME280;68279;48.964;14.502;2023-05-07T00:11:17;97148.88;;;7.77;100.00
78890;BME280;68279;48.964;14.502;2023-05-07T00:13:42;97147.22;;;7.60;100.00
78890;BME280;68279;48.964;14.502;2023-05-07T00:16:08;97146.53;;;7.80;100.00
78890;BME280;68279;48.964;14.502;2023-05-07T00:18:33;97149.44;;;7.79;100.00
78890;BME280;68279;48.964;14.502;2023-05-07T00:20:59;97147.78;;;7.67;100.00
78890;BME280;68279;48.964;14.502;2023-05-07T00:23:25;97149.31;;;7.53;100.00
78890;BME280;68279;48.964;14.502;2023-05-07T00:25:51;97144.75;;;7.49;100.00
78890;BME280;68279;48.964;14.502;2023-05-07T00:28:16;97146.13;;;7.51;100.00
78890;BME280;68279;48.964;14.502;2023-05-07T00:30:42;97142.63;;;7.51;100.00
78890;BME280;68279;48.964;14.502;2023-05-07T00:33:07;97149.75;;;7.40;100.00
78890;BME280;68279;48.964;14.502;2023-05-07T00:35:33;97146.00;;;7.36;100.00
78890;BME280;68279;48.964;14.502;2023-05-07T00:37:59;97141.50;;;7.42;100.00
78890;BME280;68279;48.964;14.502;2023-05-07T00:40:24;97150.88;;;7.49;100.00
78890;BME280;68279;48.964;14.502;2023-05-07T00:42:50;97149.16;;;7.33;100.00
78890;BME280;68279;48.964;14.502;2023-05-07T00:45:16;97144.63;;;7.28;100.00
78890;BME280;68279;48.964;14.502;2023-05-07T00:47:42;97157.78;;;7.45;100.00
78890;BME280;68279;48.964;14.502;2023-05-07T00:50:09;97154.91;;;7.57;100.00
78890;BME280;68279;48.964;14.502;2023-05-07T00:52:36;97154.44;;;7.65;100.00
78890;BME280;68279;48.964;14.502;2023-05-07T00:55:05;97150.00;;;7.38;100.00
78890;BME280;68279;48.964;14.502;2023-05-07T00:57:39;97160.84;;;7.27;100.00
78890;BME280;68279;48.964;14.502;2023-05-07T01:00:07;97161.59;;;7.22;100.00
78890;BME280;68279;48.964;14.502;2023-05-07T01:02:36;97170.13;;;7.24;100.00
78890;BME280;68279;48.964;14.502;2023-05-07T01:05:03;97176.72;;;7.17;100.00
78890;BME280;68279;48.964;14.502;2023-05-07T01:07:32;97169.84;;;7.21;100.00
78890;BME280;68279;48.964;14.502;2023-05-07T01:09:58;97178.22;;;7.39;100.00
78890;BME280;68279;48.964;14.502;2023-05-07T01:12:24;97173.53;;;7.57;100.00
78890;BME280;68279;48.964;14.502;2023-05-07T01:14:50;97178.09;;;7.61;100.00
78890;BME280;68279;48.964;14.502;2023-05-07T01:17:17;97188.03;;;7.76;100.00
78890;BME280;68279;48.964;14.502;2023-05-07T01:19:50;97182.19;;;7.79;100.00
78890;BME280;68279;48.964;14.502;2023-05-07T01:22:35;97195.22;;;7.76;100.00
78890;BME280;68279;48.964;14.502;2023-05-07T01:25:03;97185.56;;;7.64;100.00
78890;BME280;68279;48.964;14.502;2023-05-07T01:27:30;97192.22;;;7.67;100.00
78890;BME280;68279;48.964;14.502;2023-05-07T01:29:55;97186.88;;;7.62;100.00
78890;BME280;68279;48.964;14.502;2023-05-07T01:32:29;97191.09;;;7.58;100.00
78890;BME280;68279;48.964;14.502;2023-05-07T01:34:55;97180.66;;;7.46;100.00
78890;BME280;68279;48.964;14.502;2023-05-07T01:37:23;97190.91;;;7.27;100.00
78890;BME280;68279;48.964;14.502;2023-05-07T01:39:49;97189.72;;;7.13;100.00
78890;BME280;68279;48.964;14.502;2023-05-07T01:42:15;97195.81;;;7.08;100.00
78890;BME280;68279;48.964;14.502;2023-05-07T01:44:40;97195.81;;;7.08;100.00
78890;BME280;68279;48.964;14.502;2023-05-07T01:47:07;97195.81;;;7.08;100.00
78890;BME280;68279;48.964;14.502;2023-05-07T01:49:34;97190.53;;;7.14;100.00
78890;BME280;68279;48.964;14.502;2023-05-07T01:52:01;97190.09;;;7.27;100.00
78890;BME280;68279;48.964;14.502;2023-05-07T01:54:33;97190.06;;;7.22;100.00
78890;BME280;68279;48.964;14.502;2023-05-07T01:56:59;97185.50;;;7.17;100.00
78890;BME280;68279;48.964;14.502;2023-05-07T01:59:25;97190.53;;;7.14;100.00
78890;BME280;68279;48.964;14.502;2023-05-07T02:01:51;97185.88;;;7.31;100.00
78890;BME280;68279;48.964;14.502;2023-05-07T02:04:17;97182.84;;;7.54;100.00
78890;BME280;68279;48.964;14.502;2023-05-07T02:06:42;97182.38;;;7.62;100.00
78890;BME280;68279;48.964;14.502;2023-05-07T02:09:08;97177.63;;;7.70;100.00
78890;BME280;68279;48.964;14.502;2023-05-07T02:11:36;97181.94;;;7.81;100.00
78890;BME280;68279;48.964;14.502;2023-05-07T02:14:02;97181.09;;;7.75;100.00
78890;BME280;68279;48.964;14.502;2023-05-07T02:16:28;97174.97;;;7.75;100.00
78890;BME280;68279;48.964;14.502;2023-05-07T02:18:54;97177.34;;;7.71;100.00
78890;BME280;68279;48.964;14.502;2023-05-07T02:21:20;97184.81;;;7.74;100.00
78890;BME280;68279;48.964;14.502;2023-05-07T02:23:45;97180.84;;;7.77;100.00
78890;BME280;68279;48.964;14.502;2023-05-07T02:26:11;97181.97;;;7.91;100.00
78890;BME280;68279;48.964;14.502;2023-05-07T02:28:37;97183.88;;;8.01;100.00
78890;BME280;68279;48.964;14.502;2023-05-07T02:31:03;97188.19;;;8.12;100.00
78890;BME280;68279;48.964;14.502;2023-05-07T02:33:29;97177.50;;;8.02;100.00
78890;BME280;68279;48.964;14.502;2023-05-07T02:35:55;97174.66;;;7.66;100.00
78890;BME280;68279;48.964;14.502;2023-05-07T02:38:22;97180.53;;;7.31;100.00
78890;BME280;68279;48.964;14.502;2023-05-07T02:40:53;97182.72;;;7.02;100.00
78890;BME280;68279;48.964;14.502;2023-05-07T02:43:19;97186.56;;;6.84;100.00
78890;BME280;68279;48.964;14.502;2023-05-07T02:45:44;97180.53;;;6.67;100.00
78890;BME280;68279;48.964;14.502;2023-05-07T02:48:11;97176.72;;;6.58;100.00
78890;BME280;68279;48.964;14.502;2023-05-07T02:50:37;97177.03;;;6.61;100.00
78890;BME280;68279;48.964;14.502;2023-05-07T02:53:02;97173.56;;;6.61;100.00
78890;BME280;68279;48.964;14.502;2023-05-07T02:55:28;97183.38;;;6.60;100.00
78890;BME280;68279;48.964;14.502;2023-05-07T02:57:54;97183.38;;;6.60;100.00
78890;BME280;68279;48.964;14.502;2023-05-07T03:00:20;97180.78;;;6.65;100.00
78890;BME280;68279;48.964;14.502;2023-05-07T03:02:46;97173.81;;;6.59;100.00
78890;BME280;68279;48.964;14.502;2023-05-07T03:05:12;97186.59;;;6.62;100.00
78890;BME280;68279;48.964;14.502;2023-05-07T03:07:38;97178.13;;;6.65;100.00
78890;BME280;68279;48.964;14.502;2023-05-07T03:10:04;97191.09;;;6.62;100.00
78890;BME280;68279;48.964;14.502;2023-05-07T03:12:30;97184.63;;;6.52;100.00
78890;BME280;68279;48.964;14.502;2023-05-07T03:14:56;97187.00;;;6.49;100.00
78890;BME280;68279;48.964;14.502;2023-05-07T03:17:22;97195.84;;;6.55;100.00
78890;BME280;68279;48.964;14.502;2023-05-07T03:19:47;97194.63;;;6.67;100.00
78890;BME280;68279;48.964;14.502;2023-05-07T03:22:13;97198.44;;;6.76;100.00
78890;BME280;68279;48.964;14.502;2023-05-07T03:24:39;97194.78;;;6.82;100.00
78890;BME280;68279;48.964;14.502;2023-05-07T03:27:05;97195.59;;;6.83;100.00
78890;BME280;68279;48.964;14.502;2023-05-07T03:29:30;97197.34;;;6.99;100.00
78890;BME280;68279;48.964;14.502;2023-05-07T03:31:55;97199.63;;;7.18;100.00
78890;BME280;68279;48.964;14.502;2023-05-07T03:34:21;97201.56;;;7.27;100.00
78890;BME280;68279;48.964;14.502;2023-05-07T03:36:50;97201.09;;;7.41;100.00
78890;BME280;68279;48.964;14.502;2023-05-07T03:39:16;97199.06;;;7.53;100.00
78890;BME280;68279;48.964;14.502;2023-05-07T03:41:41;97199.72;;;7.70;100.00
78890;BME280;68279;48.964;14.502;2023-05-07T03:44:07;97191.78;;;7.80;100.00
78890;BME280;68279;48.964;14.502;2023-05-07T03:46:33;97196.91;;;7.92;100.00
78890;BME280;68279;48.964;14.502;2023-05-07T03:48:59;97211.56;;;7.94;100.00
78890;BME280;68279;48.964;14.502;2023-05-07T03:51:25;97207.31;;;7.99;100.00
78890;BME280;68279;48.964;14.502;2023-05-07T03:53:51;97212.06;;;7.86;100.00
78890;BME280;68279;48.964;14.502;2023-05-07T03:56:18;97207.91;;;8.06;100.00
78890;BME280;68279;48.964;14.502;2023-05-07T03:58:45;97203.16;;;8.18;100.00
78890;BME280;68279;48.964;14.502;2023-05-07T04:01:10;97206.69;;;8.34;100.00
78890;BME280;68279;48.964;14.502;2023-05-07T04:03:37;97204.03;;;8.34;100.00
78890;BME280;68279;48.964;14.502;2023-05-07T04:06:02;97210.16;;;8.34;100.00
78890;BME280;68279;48.964;14.502;2023-05-07T04:08:28;97205.41;;;8.41;100.00
78890;BME280;68279;48.964;14.502;2023-05-07T04:10:58;97212.09;;;8.54;100.00
78890;BME280;68279;48.964;14.502;2023-05-07T04:13:24;97210.81;;;8.67;100.00
78890;BME280;68279;48.964;14.502;2023-05-07T04:16:14;97210.03;;;8.66;100.00
78890;BME280;68279;48.964;14.502;2023-05-07T04:18:40;97204.41;;;8.63;100.00
78890;BME280;68279;48.964;14.502;2023-05-07T04:21:18;97203.06;;;8.60;100.00
78890;BME280;68279;48.964;14.502;2023-05-07T04:23:47;97214.50;;;8.50;100.00
78890;BME280;68279;48.964;14.502;2023-05-07T04:26:13;97218.50;;;8.53;100.00
78890;BME280;68279;48.964;14.502;2023-05-07T04:28:39;97221.41;;;8.41;100.00
78890;BME280;68279;48.964;14.502;2023-05-07T04:31:11;97216.06;;;8.41;100.00
78890;BME280;68279;48.964;14.502;2023-05-07T04:33:44;97231.53;;;8.44;100.00
78890;BME280;68279;48.964;14.502;2023-05-07T04:36:10;97230.97;;;8.37;100.00
78890;BME280;68279;48.964;14.502;2023-05-07T04:38:36;97233.66;;;8.42;100.00
78890;BME280;68279;48.964;14.502;2023-05-07T04:41:08;97240.06;;;8.46;100.00
78890;BME280;68279;48.964;14.502;2023-05-07T04:43:34;97243.28;;;8.48;100.00
78890;BME280;68279;48.964;14.502;2023-05-07T04:46:02;97240.09;;;8.57;100.00
78890;BME280;68279;48.964;14.502;2023-05-07T04:48:29;97243.63;;;8.77;100.00
78890;BME280;68279;48.964;14.502;2023-05-07T04:50:55;97230.84;;;8.85;98.15
78890;BME280;68279;48.964;14.502;2023-05-07T04:53:21;97245.28;;;8.99;96.67
78890;BME280;68279;48.964;14.502;2023-05-07T04:55:57;97250.13;;;9.22;95.85
78890;BME280;68279;48.964;14.502;2023-05-07T04:58:29;97245.31;;;9.45;95.10
78890;BME280;68279;48.964;14.502;2023-05-07T05:01:00;97256.25;;;9.58;94.43
78890;BME280;68279;48.964;14.502;2023-05-07T05:03:26;97246.38;;;9.74;93.94
78890;BME280;68279;48.964;14.502;2023-05-07T05:05:58;97249.84;;;9.59;93.22
78890;BME280;68279;48.964;14.502;2023-05-07T05:08:25;97250.66;;;9.60;93.68
78890;BME280;68279;48.964;14.502;2023-05-07T05:11:01;97261.59;;;9.58;93.08
78890;BME280;68279;48.964;14.502;2023-05-07T05:13:43;97262.13;;;9.71;92.52
78890;BME280;68279;48.964;14.502;2023-05-07T05:16:15;97257.31;;;9.78;92.48
78890;BME280;68279;48.964;14.502;2023-05-07T05:18:47;97267.47;;;9.71;91.44
78890;BME280;68279;48.964;14.502;2023-05-07T05:21:14;97265.09;;;9.64;91.15
78890;BME280;68279;48.964;14.502;2023-05-07T05:24:08;97266.66;;;9.60;90.78
78890;BME280;68279;48.964;14.502;2023-05-07T05:26:42;97265.06;;;9.54;90.27
78890;BME280;68279;48.964;14.502;2023-05-07T05:29:14;97272.00;;;9.70;90.00
78890;BME280;68279;48.964;14.502;2023-05-07T05:31:39;97269.34;;;9.60;90.35
78890;BME280;68279;48.964;14.502;2023-05-07T05:34:05;97269.06;;;9.67;89.53
78890;BME280;68279;48.964;14.502;2023-05-07T05:36:31;97276.81;;;9.78;89.73
78890;BME280;68279;48.964;14.502;2023-05-07T05:39:00;97276.56;;;9.75;89.45
78890;BME280;68279;48.964;14.502;2023-05-07T05:41:28;97277.31;;;9.80;89.55
78890;BME280;68279;48.964;14.502;2023-05-07T05:43:53;97281.06;;;9.79;88.57
78890;BME280;68279;48.964;14.502;2023-05-07T05:46:25;97281.31;;;10.03;88.27
78890;BME280;68279;48.964;14.502;2023-05-07T05:48:50;97285.31;;;10.06;87.89
78890;BME280;68279;48.964;14.502;2023-05-07T05:51:16;97288.56;;;9.92;87.58
78890;BME280;68279;48.964;14.502;2023-05-07T05:53:44;97279.44;;;10.09;87.41
78890;BME280;68279;48.964;14.502;2023-05-07T05:56:12;97280.75;;;10.21;87.55
78890;BME280;68279;48.964;14.502;2023-05-07T05:58:44;97286.56;;;10.49;85.78
78890;BME280;68279;48.964;14.502;2023-05-07T06:01:17;97293.00;;;10.48;86.32
78890;BME280;68279;48.964;14.502;2023-05-07T06:03:50;97290.84;;;10.60;87.09
78890;BME280;68279;48.964;14.502;2023-05-07T06:06:16;97296.94;;;10.71;86.26
78890;BME280;68279;48.964;14.502;2023-05-07T06:08:42;97298.34;;;10.53;85.87
78890;BME280;68279;48.964;14.502;2023-05-07T06:11:07;97294.03;;;10.62;85.75
78890;BME280;68279;48.964;14.502;2023-05-07T06:13:34;97301.78;;;10.64;85.18
78890;BME280;68279;48.964;14.502;2023-05-07T06:15:59;97297.69;;;10.76;85.25
78890;BME280;68279;48.964;14.502;2023-05-07T06:18:25;97302.84;;;10.58;85.90
78890;BME280;68279;48.964;14.502;2023-05-07T06:20:52;97310.88;;;10.63;86.08
78890;BME280;68279;48.964;14.502;2023-05-07T06:23:17;97309.78;;;10.64;86.02
78890;BME280;68279;48.964;14.502;2023-05-07T06:25:48;97305.81;;;10.51;85.05
78890;BME280;68279;48.964;14.502;2023-05-07T06:28:15;97319.78;;;10.43;86.36
78890;BME280;68279;48.964;14.502;2023-05-07T06:30:44;97314.72;;;10.26;86.22
78890;BME280;68279;48.964;14.502;2023-05-07T06:33:11;97320.56;;;10.33;85.73
78890;BME280;68279;48.964;14.502;2023-05-07T06:36:00;97318.44;;;10.35;86.42
78890;BME280;68279;48.964;14.502;2023-05-07T06:38:25;97319.25;;;10.36;87.06
78890;BME280;68279;48.964;14.502;2023-05-07T06:40:51;97323.13;;;10.79;85.04
78890;BME280;68279;48.964;14.502;2023-05-07T06:43:17;97323.38;;;10.83;84.09
78890;BME280;68279;48.964;14.502;2023-05-07T06:45:50;97330.22;;;11.04;83.97
78890;BME280;68279;48.964;14.502;2023-05-07T06:48:16;97335.09;;;10.92;84.64
78890;BME280;68279;48.964;14.502;2023-05-07T06:50:41;97335.63;;;10.94;84.72
78890;BME280;68279;48.964;14.502;2023-05-07T06:53:09;97339.88;;;11.05;83.53
78890;BME280;68279;48.964;14.502;2023-05-07T06:55:35;97339.22;;;11.23;83.33
78890;BME280;68279;48.964;14.502;2023-05-07T06:58:01;97347.78;;;11.25;81.94
78890;BME280;68279;48.964;14.502;2023-05-07T07:00:27;97343.00;;;11.22;82.13
78890;BME280;68279;48.964;14.502;2023-05-07T07:02:54;97341.06;;;11.28;82.99
78890;BME280;68279;48.964;14.502;2023-05-07T07:05:22;97342.66;;;10.80;84.54
78890;BME280;68279;48.964;14.502;2023-05-07T07:07:53;97351.66;;;10.94;84.23
78890;BME280;68279;48.964;14.502;2023-05-07T07:10:20;97349.72;;;11.15;83.27
78890;BME280;68279;48.964;14.502;2023-05-07T07:12:46;97354.44;;;11.28;84.04
78890;BME280;68279;48.964;14.502;2023-05-07T07:15:16;97352.22;;;10.96;82.92
78890;BME280;68279;48.964;14.502;2023-05-07T07:17:43;97358.38;;;10.86;83.89
78890;BME280;68279;48.964;14.502;2023-05-07T07:20:10;97357.28;;;10.97;83.02
78890;BME280;68279;48.964;14.502;2023-05-07T07:22:51;97356.06;;;10.59;84.42
78890;BME280;68279;48.964;14.502;2023-05-07T07:25:23;97362.53;;;10.53;84.39
78890;BME280;68279;48.964;14.502;2023-05-07T07:28:11;97359.31;;;10.46;84.73
78890;BME280;68279;48.964;14.502;2023-05-07T07:30:38;97359.06;;;10.37;85.54
78890;BME280;68279;48.964;14.502;2023-05-07T07:33:10;97359.53;;;10.60;85.34
78890;BME280;68279;48.964;14.502;2023-05-07T07:35:35;97365.13;;;10.78;82.96
78890;BME280;68279;48.964;14.502;2023-05-07T07:38:01;97369.59;;;10.93;82.28
78890;BME280;68279;48.964;14.502;2023-05-07T07:40:27;97366.75;;;10.64;82.56
78890;BME280;68279;48.964;14.502;2023-05-07T07:42:59;97365.13;;;10.73;83.58
78890;BME280;68279;48.964;14.502;2023-05-07T07:45:29;97369.72;;;10.63;82.76
78890;BME280;68279;48.964;14.502;2023-05-07T07:47:58;97365.41;;;10.72;82.99
78890;BME280;68279;48.964;14.502;2023-05-07T07:50:48;97373.75;;;10.60;81.34
78890;BME280;68279;48.964;14.502;2023-05-07T07:53:15;97380.81;;;11.05;82.19
78890;BME280;68279;48.964;14.502;2023-05-07T07:55:58;97377.06;;;11.56;81.88
78890;BME280;68279;48.964;14.502;2023-05-07T07:58:29;97382.53;;;11.41;79.65
78890;BME280;68279;48.964;14.502;2023-05-07T08:04:06;97387.91;;;11.30;81.30
78890;BME280;68279;48.964;14.502;2023-05-07T08:06:50;97388.41;;;11.38;79.70
78890;BME280;68279;48.964;14.502;2023-05-07T08:09:23;97384.56;;;11.54;79.37
78890;BME280;68279;48.964;14.502;2023-05-07T08:12:06;97389.78;;;11.35;80.46
78890;BME280;68279;48.964;14.502;2023-05-07T08:20:52;97395.50;;;11.62;77.88
78890;BME280;68279;48.964;14.502;2023-05-07T08:23:18;97392.41;;;11.89;77.39
78890;BME280;68279;48.964;14.502;2023-05-07T08:25:43;97399.47;;;11.21;78.86
78890;BME280;68279;48.964;14.502;2023-05-07T08:28:15;97410.25;;;11.05;82.39
78890;BME280;68279;48.964;14.502;2023-05-07T08:30:42;97408.16;;;11.52;79.97
78890;BME280;68279;48.964;14.502;2023-05-07T08:33:16;97411.72;;;11.86;79.68
78890;BME280;68279;48.964;14.502;2023-05-07T08:35:53;97416.69;;;12.37;77.71
78890;BME280;68279;48.964;14.502;2023-05-07T08:38:24;97409.88;;;11.77;77.39
78890;BME280;68279;48.964;14.502;2023-05-07T08:41:03;97414.97;;;11.78;78.33
78890;BME280;68279;48.964;14.502;2023-05-07T08:43:52;97412.16;;;11.54;78.69
78890;BME280;68279;48.964;14.502;2023-05-07T08:49:48;97408.25;;;11.86;76.32
78890;BME280;68279;48.964;14.502;2023-05-07T08:52:14;97406.41;;;12.44;76.73
78890;BME280;68279;48.964;14.502;2023-05-07T08:54:46;97405.31;;;12.98;77.61
78890;BME280;68279;48.964;14.502;2023-05-07T08:57:23;97406.72;;;11.64;78.79
78890;BME280;68279;48.964;14.502;2023-05-07T08:59:53;97413.91;;;11.84;76.22
78890;BME280;68279;48.964;14.502;2023-05-07T09:02:25;97414.25;;;12.07;77.18
78890;BME280;68279;48.964;14.502;2023-05-07T09:05:09;97406.06;;;13.04;75.15
78890;BME280;68279;48.964;14.502;2023-05-07T09:07:53;97414.66;;;12.82;74.64
78890;BME280;68279;48.964;14.502;2023-05-07T09:13:55;97417.31;;;13.06;74.80
78890;BME280;68279;48.964;14.502;2023-05-07T09:19:44;97423.50;;;12.54;73.74
78890;BME280;68279;48.964;14.502;2023-05-07T09:22:11;97430.34;;;12.07;75.65
78890;BME280;68279;48.964;14.502;2023-05-07T09:24:40;97434.41;;;11.99;77.43
78890;BME280;68279;48.964;14.502;2023-05-07T09:27:06;97429.56;;;12.01;75.87
78890;BME280;68279;48.964;14.502;2023-05-07T09:32:28;97424.38;;;12.49;74.75
78890;BME280;68279;48.964;14.502;2023-05-07T09:35:14;97425.53;;;12.67;74.03
78890;BME280;68279;48.964;14.502;2023-05-07T09:37:57;97432.50;;;12.68;75.31
78890;BME280;68279;48.964;14.502;2023-05-07T09:40:30;97421.41;;;12.51;74.94
78890;BME280;68279;48.964;14.502;2023-05-07T09:42:56;97419.47;;;12.80;74.36
78890;BME280;68279;48.964;14.502;2023-05-07T09:45:41;97419.94;;;12.87;71.31
78890;BME280;68279;48.964;14.502;2023-05-07T09:48:06;97419.34;;;13.43;69.46
78890;BME280;68279;48.964;14.502;2023-05-07T09:50:44;97421.75;;;13.21;70.74
78890;BME280;68279;48.964;14.502;2023-05-07T09:53:17;97420.72;;;12.93;72.23
78890;BME280;68279;48.964;14.502;2023-05-07T09:55:43;97415.09;;;13.13;72.95
78890;BME280;68279;48.964;14.502;2023-05-07T09:58:27;97412.66;;;13.59;70.52
78890;BME280;68279;48.964;14.502;2023-05-07T10:00:54;97420.06;;;13.86;74.42
78890;BME280;68279;48.964;14.502;2023-05-07T10:03:22;97422.88;;;13.95;68.28
78890;BME280;68279;48.964;14.502;2023-05-07T10:05:54;97419.06;;;13.21;70.24
78890;BME280;68279;48.964;14.502;2023-05-07T10:08:22;97422.19;;;13.52;68.34
78890;BME280;68279;48.964;14.502;2023-05-07T10:10:48;97425.88;;;13.94;69.20
78890;BME280;68279;48.964;14.502;2023-05-07T10:13:18;97416.84;;;14.03;67.02
78890;BME280;68279;48.964;14.502;2023-05-07T10:15:44;97408.00;;;13.84;68.82
78890;BME280;68279;48.964;14.502;2023-05-07T10:18:11;97414.47;;;13.45;69.00
78890;BME280;68279;48.964;14.502;2023-05-07T10:20:38;97404.09;;;14.28;69.89
78890;BME280;68279;48.964;14.502;2023-05-07T10:23:05;97403.44;;;13.66;69.24
78890;BME280;68279;48.964;14.502;2023-05-07T10:25:34;97409.31;;;14.38;70.81
78890;BME280;68279;48.964;14.502;2023-05-07T10:28:04;97410.31;;;14.09;67.55
78890;BME280;68279;48.964;14.502;2023-05-07T10:33:05;97415.72;;;16.38;62.94
78890;BME280;68279;48.964;14.502;2023-05-07T10:35:37;97404.44;;;16.89;58.92
78890;BME280;68279;48.964;14.502;2023-05-07T10:38:04;97404.19;;;17.08;60.36
78890;BME280;68279;48.964;14.502;2023-05-07T10:40:32;97389.13;;;17.16;63.34
78890;BME280;68279;48.964;14.502;2023-05-07T10:43:01;97384.75;;;16.35;64.18
78890;BME280;68279;48.964;14.502;2023-05-07T10:45:29;97386.41;;;16.45;65.75
78890;BME280;68279;48.964;14.502;2023-05-07T10:50:40;97380.28;;;16.62;63.68
78890;BME280;68279;48.964;14.502;2023-05-07T10:53:21;97382.75;;;16.72;60.93
78890;BME280;68279;48.964;14.502;2023-05-07T10:55:48;97391.69;;;16.59;62.53
78890;BME280;68279;48.964;14.502;2023-05-07T11:00:48;97409.28;;;16.48;65.58
78890;BME280;68279;48.964;14.502;2023-05-07T11:03:14;97401.22;;;16.34;57.88
78890;BME280;68279;48.964;14.502;2023-05-07T11:05:41;97394.47;;;16.98;57.03
78890;BME280;68279;48.964;14.502;2023-05-07T11:08:08;97395.41;;;17.60;59.13
78890;BME280;68279;48.964;14.502;2023-05-07T11:10:54;97387.03;;;17.87;56.97
78890;BME280;68279;48.964;14.502;2023-05-07T11:13:57;97388.97;;;19.44;56.42
78890;BME280;68279;48.964;14.502;2023-05-07T11:16:24;97391.75;;;18.33;56.23
78890;BME280;68279;48.964;14.502;2023-05-07T11:18:52;97394.31;;;17.69;58.34
78890;BME280;68279;48.964;14.502;2023-05-07T11:21:41;97380.16;;;19.27;54.46
78890;BME280;68279;48.964;14.502;2023-05-07T11:24:08;97387.94;;;18.90;53.47
78890;BME280;68279;48.964;14.502;2023-05-07T11:26:48;97384.56;;;17.42;58.02
78890;BME280;68279;48.964;14.502;2023-05-07T11:29:19;97388.94;;;17.78;56.87
78890;BME280;68279;48.964;14.502;2023-05-07T11:31:49;97385.91;;;17.14;57.21
78890;BME280;68279;48.964;14.502;2023-05-07T11:34:15;97386.19;;;16.64;60.19
78890;BME280;68279;48.964;14.502;2023-05-07T11:36:47;97377.94;;;17.92;54.66
78890;BME280;68279;48.964;14.502;2023-05-07T11:39:29;97385.28;;;18.64;54.67
78890;BME280;68279;48.964;14.502;2023-05-07T11:41:55;97382.72;;;18.85;59.25
78890;BME280;68279;48.964;14.502;2023-05-07T11:44:21;97375.16;;;18.99;51.70
78890;BME280;68279;48.964;14.502;2023-05-07T11:46:47;97381.00;;;18.72;53.95
78890;BME280;68279;48.964;14.502;2023-05-07T11:49:18;97372.25;;;19.34;58.00
78890;BME280;68279;48.964;14.502;2023-05-07T11:51:44;97363.22;;;19.30;59.07
78890;BME280;68279;48.964;14.502;2023-05-07T11:54:15;97359.75;;;17.49;57.28
78890;BME280;68279;48.964;14.502;2023-05-07T11:56:41;97363.16;;;19.38;58.42
78890;BME280;68279;48.964;14.502;2023-05-07T11:59:07;97357.59;;;19.64;56.55
78890;BME280;68279;48.964;14.502;2023-05-07T12:01:35;97361.44;;;18.57;59.19
78890;BME280;68279;48.964;14.502;2023-05-07T12:04:03;97354.84;;;18.20;52.64
78890;BME280;68279;48.964;14.502;2023-05-07T12:06:35;97347.59;;;17.12;57.56
78890;BME280;68279;48.964;14.502;2023-05-07T12:09:03;97343.28;;;18.58;57.44
78890;BME280;68279;48.964;14.502;2023-05-07T12:11:29;97348.31;;;18.77;51.15
78890;BME280;68279;48.964;14.502;2023-05-07T12:13:58;97347.53;;;18.12;58.61
78890;BME280;68279;48.964;14.502;2023-05-07T12:16:23;97353.94;;;18.54;56.54
78890;BME280;68279;48.964;14.502;2023-05-07T12:18:50;97355.53;;;19.32;53.32
78890;BME280;68279;48.964;14.502;2023-05-07T12:21:18;97345.84;;;18.46;56.52
78890;BME280;68279;48.964;14.502;2023-05-07T12:23:43;97341.66;;;18.74;53.33
78890;BME280;68279;48.964;14.502;2023-05-07T12:26:09;97347.56;;;19.98;50.57
78890;BME280;68279;48.964;14.502;2023-05-07T12:28:37;97337.72;;;20.26;55.84
78890;BME280;68279;48.964;14.502;2023-05-07T12:31:04;97328.75;;;20.59;52.46
78890;BME280;68279;48.964;14.502;2023-05-07T12:33:30;97333.09;;;20.97;53.24
78890;BME280;68279;48.964;14.502;2023-05-07T12:35:58;97331.44;;;19.09;52.73
78890;BME280;68279;48.964;14.502;2023-05-07T12:38:34;97342.16;;;18.97;53.36
78890;BME280;68279;48.964;14.502;2023-05-07T12:41:00;97336.53;;;18.64;52.84
78890;BME280;68279;48.964;14.502;2023-05-07T12:43:27;97341.31;;;20.30;52.11
78890;BME280;68279;48.964;14.502;2023-05-07T12:45:55;97341.66;;;20.50;47.90
78890;BME280;68279;48.964;14.502;2023-05-07T12:48:22;97337.53;;;19.57;51.83
78890;BME280;68279;48.964;14.502;2023-05-07T12:50:53;97340.44;;;20.38;53.02
78890;BME280;68279;48.964;14.502;2023-05-07T12:53:21;97332.69;;;21.59;53.57
78890;BME280;68279;48.964;14.502;2023-05-07T12:55:52;97331.47;;;21.57;49.27
78890;BME280;68279;48.964;14.502;2023-05-07T12:58:23;97325.59;;;21.06;48.80
78890;BME280;68279;48.964;14.502;2023-05-07T13:00:50;97324.75;;;20.11;49.48
78890;BME280;68279;48.964;14.502;2023-05-07T13:03:28;97317.66;;;21.77;45.87
78890;BME280;68279;48.964;14.502;2023-05-07T13:05:59;97313.66;;;22.15;44.99
78890;BME280;68279;48.964;14.502;2023-05-07T13:08:38;97312.88;;;22.15;47.76
78890;BME280;68279;48.964;14.502;2023-05-07T13:11:07;97309.69;;;22.72;47.29
78890;BME280;68279;48.964;14.502;2023-05-07T13:13:35;97308.34;;;22.66;44.81
78890;BME280;68279;48.964;14.502;2023-05-07T13:16:01;97309.59;;;23.16;42.75
78890;BME280;68279;48.964;14.502;2023-05-07T13:18:29;97314.72;;;21.70;47.25
78890;BME280;68279;48.964;14.502;2023-05-07T13:20:55;97301.94;;;22.27;44.95
78890;BME280;68279;48.964;14.502;2023-05-07T13:23:20;97293.66;;;21.67;47.52
78890;BME280;68279;48.964;14.502;2023-05-07T13:25:47;97291.72;;;23.03;44.21
78890;BME280;68279;48.964;14.502;2023-05-07T13:28:12;97299.53;;;23.74;39.78
78890;BME280;68279;48.964;14.502;2023-05-07T13:30:39;97301.41;;;23.00;44.33